sensor_id;sensor_type;location;lat;lon;timestamp;P1;durP1;ratioP1;P2;durP2;ratioP2
75386;SDS011;63966;47.914;22.266;2023-05-10T00:00:05;6.57;;;3.50;;
75386;SDS011;63966;47.914;22.266;2023-05-10T00:03:14;7.22;;;3.53;;
75386;SDS011;63966;47.914;22.266;2023-05-10T00:06:18;7.20;;;3.65;;
75386;SDS011;63966;47.914;22.266;2023-05-10T00:09:21;9.20;;;3.80;;
75386;SDS011;63966;47.914;22.266;2023-05-10T00:12:24;9.10;;;4.10;;
75386;SDS011;63966;47.914;22.266;2023-05-10T00:15:28;10.13;;;3.90;;
75386;SDS011;63966;47.914;22.266;2023-05-10T00:18:32;7.13;;;3.85;;
75386;SDS011;63966;47.914;22.266;2023-05-10T00:21:36;8.57;;;4.15;;
75386;SDS011;63966;47.914;22.266;2023-05-10T00:24:39;8.73;;;3.67;;
75386;SDS011;63966;47.914;22.266;2023-05-10T00:27:42;7.25;;;3.53;;
75386;SDS011;63966;47.914;22.266;2023-05-10T00:30:46;9.87;;;3.80;;
75386;SDS011;63966;47.914;22.266;2023-05-10T00:33:49;8.82;;;3.90;;
75386;SDS011;63966;47.914;22.266;2023-05-10T00:36:53;7.80;;;4.05;;
75386;SDS011;63966;47.914;22.266;2023-05-10T00:39:56;8.63;;;4.28;;
75386;SDS011;63966;47.914;22.266;2023-05-10T00:42:59;9.10;;;4.00;;
75386;SDS011;63966;47.914;22.266;2023-05-10T00:46:04;9.43;;;3.80;;
75386;SDS011;63966;47.914;22.266;2023-05-10T00:49:08;7.68;;;3.67;;
75386;SDS011;63966;47.914;22.266;2023-05-10T00:52:11;7.85;;;4.00;;
75386;SDS011;63966;47.914;22.266;2023-05-10T00:55:15;7.30;;;3.40;;
75386;SDS011;63966;47.914;22.266;2023-05-10T00:58:19;9.10;;;3.85;;
75386;SDS011;63966;47.914;22.266;2023-05-10T01:01:23;8.47;;;3.97;;
75386;SDS011;63966;47.914;22.266;2023-05-10T01:04:27;8.85;;;3.75;;
75386;SDS011;63966;47.914;22.266;2023-05-10T01:07:31;6.95;;;3.50;;
75386;SDS011;63966;47.914;22.266;2023-05-10T01:10:35;7.53;;;3.92;;
75386;SDS011;63966;47.914;22.266;2023-05-10T01:13:39;8.75;;;4.07;;
75386;SDS011;63966;47.914;22.266;2023-05-10T01:16:44;9.03;;;3.80;;
75386;SDS011;63966;47.914;22.266;2023-05-10T01:19:50;12.05;;;4.20;;
75386;SDS011;63966;47.914;22.266;2023-05-10T01:23:04;12.50;;;3.95;;
75386;SDS011;63966;47.914;22.266;2023-05-10T01:33:38;8.93;;;3.97;;
75386;SDS011;63966;47.914;22.266;2023-05-10T01:37:11;8.82;;;4.00;;
75386;SDS011;63966;47.914;22.266;2023-05-10T01:50:44;8.40;;;3.87;;
75386;SDS011;63966;47.914;22.266;2023-05-10T01:53:48;8.68;;;3.90;;
75386;SDS011;63966;47.914;22.266;2023-05-10T01:56:56;11.52;;;4.20;;
75386;SDS011;63966;47.914;22.266;2023-05-10T02:00:05;10.80;;;4.45;;
75386;SDS011;63966;47.914;22.266;2023-05-10T02:03:16;11.90;;;5.03;;
75386;SDS011;63966;47.914;22.266;2023-05-10T02:06:25;11.67;;;4.40;;
75386;SDS011;63966;47.914;22.266;2023-05-10T02:09:30;9.00;;;4.00;;
75386;SDS011;63966;47.914;22.266;2023-05-10T02:12:36;10.85;;;4.05;;
75386;SDS011;63966;47.914;22.266;2023-05-10T02:15:48;7.88;;;3.85;;
75386;SDS011;63966;47.914;22.266;2023-05-10T02:18:53;8.50;;;4.20;;
75386;SDS011;63966;47.914;22.266;2023-05-10T02:21:59;7.90;;;4.47;;
75386;SDS011;63966;47.914;22.266;2023-05-10T02:25:03;11.38;;;4.25;;
75386;SDS011;63966;47.914;22.266;2023-05-10T02:28:08;9.80;;;4.13;;
75386;SDS011;63966;47.914;22.266;2023-05-10T02:31:14;9.10;;;3.88;;
75386;SDS011;63966;47.914;22.266;2023-05-10T02:34:19;8.63;;;4.25;;
75386;SDS011;63966;47.914;22.266;2023-05-10T02:37:24;9.60;;;3.97;;
75386;SDS011;63966;47.914;22.266;2023-05-10T02:40:29;9.32;;;4.10;;
75386;SDS011;63966;47.914;22.266;2023-05-10T02:43:34;7.78;;;3.65;;
75386;SDS011;63966;47.914;22.266;2023-05-10T02:46:39;14.35;;;4.22;;
75386;SDS011;63966;47.914;22.266;2023-05-10T02:49:43;7.45;;;3.70;;
75386;SDS011;63966;47.914;22.266;2023-05-10T02:52:47;10.10;;;3.97;;
75386;SDS011;63966;47.914;22.266;2023-05-10T02:55:57;7.30;;;3.70;;
75386;SDS011;63966;47.914;22.266;2023-05-10T02:59:03;8.43;;;4.03;;
75386;SDS011;63966;47.914;22.266;2023-05-10T03:02:07;7.93;;;3.63;;
75386;SDS011;63966;47.914;22.266;2023-05-10T03:05:11;9.20;;;3.97;;
75386;SDS011;63966;47.914;22.266;2023-05-10T03:08:14;9.20;;;3.93;;
75386;SDS011;63966;47.914;22.266;2023-05-10T03:18:10;7.03;;;3.38;;
75386;SDS011;63966;47.914;22.266;2023-05-10T03:21:20;8.13;;;3.35;;
75386;SDS011;63966;47.914;22.266;2023-05-10T03:24:28;7.93;;;4.10;;
75386;SDS011;63966;47.914;22.266;2023-05-10T03:27:35;7.00;;;3.42;;
75386;SDS011;63966;47.914;22.266;2023-05-10T03:30:41;8.50;;;3.80;;
75386;SDS011;63966;47.914;22.266;2023-05-10T03:33:48;7.50;;;3.42;;
75386;SDS011;63966;47.914;22.266;2023-05-10T03:36:57;7.50;;;3.92;;
75386;SDS011;63966;47.914;22.266;2023-05-10T03:40:04;8.10;;;3.77;;
75386;SDS011;63966;47.914;22.266;2023-05-10T03:43:10;8.15;;;3.88;;
75386;SDS011;63966;47.914;22.266;2023-05-10T03:46:14;11.77;;;4.10;;
75386;SDS011;63966;47.914;22.266;2023-05-10T03:49:17;8.10;;;3.45;;
75386;SDS011;63966;47.914;22.266;2023-05-10T03:52:21;6.63;;;3.30;;
75386;SDS011;63966;47.914;22.266;2023-05-10T03:55:24;10.27;;;3.53;;
75386;SDS011;63966;47.914;22.266;2023-05-10T03:58:28;7.07;;;3.55;;
75386;SDS011;63966;47.914;22.266;2023-05-10T04:01:33;7.40;;;4.00;;
75386;SDS011;63966;47.914;22.266;2023-05-10T04:04:37;7.68;;;3.97;;
75386;SDS011;63966;47.914;22.266;2023-05-10T04:07:41;7.40;;;3.70;;
75386;SDS011;63966;47.914;22.266;2023-05-10T04:10:46;7.07;;;3.43;;
75386;SDS011;63966;47.914;22.266;2023-05-10T04:13:49;7.50;;;3.70;;
75386;SDS011;63966;47.914;22.266;2023-05-10T04:16:53;7.45;;;3.38;;
75386;SDS011;63966;47.914;22.266;2023-05-10T04:19:57;6.95;;;3.80;;
75386;SDS011;63966;47.914;22.266;2023-05-10T04:23:00;7.07;;;3.80;;
75386;SDS011;63966;47.914;22.266;2023-05-10T04:26:04;8.17;;;3.90;;
75386;SDS011;63966;47.914;22.266;2023-05-10T04:29:07;6.30;;;3.50;;
75386;SDS011;63966;47.914;22.266;2023-05-10T04:32:10;7.35;;;3.80;;
75386;SDS011;63966;47.914;22.266;2023-05-10T04:35:14;7.80;;;3.60;;
75386;SDS011;63966;47.914;22.266;2023-05-10T04:38:17;5.82;;;3.10;;
75386;SDS011;63966;47.914;22.266;2023-05-10T04:41:21;7.03;;;3.47;;
75386;SDS011;63966;47.914;22.266;2023-05-10T04:44:24;6.22;;;3.08;;
75386;SDS011;63966;47.914;22.266;2023-05-10T04:47:28;6.50;;;3.28;;
75386;SDS011;63966;47.914;22.266;2023-05-10T04:50:31;6.60;;;3.22;;
75386;SDS011;63966;47.914;22.266;2023-05-10T04:53:34;6.82;;;3.67;;
75386;SDS011;63966;47.914;22.266;2023-05-10T04:56:38;7.27;;;4.17;;
75386;SDS011;63966;47.914;22.266;2023-05-10T04:59:41;8.88;;;3.35;;
75386;SDS011;63966;47.914;22.266;2023-05-10T05:02:45;5.85;;;3.63;;
75386;SDS011;63966;47.914;22.266;2023-05-10T05:05:48;8.18;;;3.20;;
75386;SDS011;63966;47.914;22.266;2023-05-10T05:08:52;8.13;;;3.70;;
75386;SDS011;63966;47.914;22.266;2023-05-10T05:11:55;6.57;;;3.40;;
75386;SDS011;63966;47.914;22.266;2023-05-10T05:14:58;7.25;;;3.35;;
75386;SDS011;63966;47.914;22.266;2023-05-10T05:18:02;9.25;;;3.50;;
75386;SDS011;63966;47.914;22.266;2023-05-10T05:21:15;6.35;;;2.67;;
75386;SDS011;63966;47.914;22.266;2023-05-10T05:24:19;7.38;;;3.38;;
75386;SDS011;63966;47.914;22.266;2023-05-10T05:27:23;6.87;;;3.07;;
75386;SDS011;63966;47.914;22.266;2023-05-10T05:30:28;5.82;;;2.80;;
75386;SDS011;63966;47.914;22.266;2023-05-10T05:33:33;6.72;;;2.85;;
75386;SDS011;63966;47.914;22.266;2023-05-10T05:36:36;5.82;;;2.50;;
75386;SDS011;63966;47.914;22.266;2023-05-10T05:39:43;5.60;;;2.90;;
75386;SDS011;63966;47.914;22.266;2023-05-10T05:42:47;4.37;;;2.47;;
75386;SDS011;63966;47.914;22.266;2023-05-10T05:45:54;5.05;;;2.45;;
75386;SDS011;63966;47.914;22.266;2023-05-10T05:49:02;6.32;;;2.88;;
75386;SDS011;63966;47.914;22.266;2023-05-10T05:52:05;6.90;;;2.42;;
75386;SDS011;63966;47.914;22.266;2023-05-10T05:55:08;6.03;;;3.15;;
75386;SDS011;63966;47.914;22.266;2023-05-10T05:58:12;5.27;;;2.80;;
75386;SDS011;63966;47.914;22.266;2023-05-10T06:01:15;5.82;;;2.85;;
75386;SDS011;63966;47.914;22.266;2023-05-10T06:04:19;4.90;;;2.50;;
75386;SDS011;63966;47.914;22.266;2023-05-10T06:07:22;5.20;;;2.92;;
75386;SDS011;63966;47.914;22.266;2023-05-10T06:10:26;6.00;;;3.05;;
75386;SDS011;63966;47.914;22.266;2023-05-10T06:13:29;6.17;;;2.77;;
75386;SDS011;63966;47.914;22.266;2023-05-10T06:16:35;5.95;;;2.42;;
75386;SDS011;63966;47.914;22.266;2023-05-10T06:19:38;9.65;;;3.03;;
75386;SDS011;63966;47.914;22.266;2023-05-10T06:22:42;5.20;;;2.40;;
75386;SDS011;63966;47.914;22.266;2023-05-10T06:25:46;4.60;;;2.50;;
75386;SDS011;63966;47.914;22.266;2023-05-10T06:28:50;6.13;;;2.43;;
75386;SDS011;63966;47.914;22.266;2023-05-10T06:31:54;4.65;;;2.65;;
75386;SDS011;63966;47.914;22.266;2023-05-10T06:34:57;5.28;;;2.70;;
75386;SDS011;63966;47.914;22.266;2023-05-10T06:38:01;5.80;;;2.85;;
75386;SDS011;63966;47.914;22.266;2023-05-10T06:41:04;6.20;;;2.40;;
75386;SDS011;63966;47.914;22.266;2023-05-10T06:44:08;4.60;;;2.37;;
75386;SDS011;63966;47.914;22.266;2023-05-10T06:47:11;4.57;;;2.42;;
75386;SDS011;63966;47.914;22.266;2023-05-10T06:50:15;4.85;;;2.40;;
75386;SDS011;63966;47.914;22.266;2023-05-10T06:53:18;6.43;;;2.78;;
75386;SDS011;63966;47.914;22.266;2023-05-10T06:56:30;6.03;;;2.53;;
75386;SDS011;63966;47.914;22.266;2023-05-10T06:59:33;6.30;;;2.50;;
75386;SDS011;63966;47.914;22.266;2023-05-10T07:02:38;5.35;;;2.28;;
75386;SDS011;63966;47.914;22.266;2023-05-10T07:05:42;7.03;;;2.47;;
75386;SDS011;63966;47.914;22.266;2023-05-10T07:08:48;6.68;;;2.58;;
75386;SDS011;63966;47.914;22.266;2023-05-10T07:11:53;4.38;;;2.28;;
75386;SDS011;63966;47.914;22.266;2023-05-10T07:14:58;4.80;;;2.23;;
75386;SDS011;63966;47.914;22.266;2023-05-10T07:18:02;5.95;;;2.60;;
75386;SDS011;63966;47.914;22.266;2023-05-10T07:21:08;4.78;;;2.55;;
75386;SDS011;63966;47.914;22.266;2023-05-10T07:24:11;6.82;;;2.40;;
75386;SDS011;63966;47.914;22.266;2023-05-10T07:27:17;5.95;;;3.28;;
75386;SDS011;63966;47.914;22.266;2023-05-10T07:30:20;3.83;;;2.20;;
75386;SDS011;63966;47.914;22.266;2023-05-10T07:33:24;5.68;;;2.65;;
75386;SDS011;63966;47.914;22.266;2023-05-10T07:36:27;4.57;;;2.38;;
75386;SDS011;63966;47.914;22.266;2023-05-10T07:39:30;9.30;;;2.65;;
75386;SDS011;63966;47.914;22.266;2023-05-10T07:42:34;4.97;;;1.98;;
75386;SDS011;63966;47.914;22.266;2023-05-10T07:45:38;5.47;;;2.43;;
75386;SDS011;63966;47.914;22.266;2023-05-10T07:48:41;7.80;;;2.42;;
75386;SDS011;63966;47.914;22.266;2023-05-10T07:51:45;5.45;;;2.60;;
75386;SDS011;63966;47.914;22.266;2023-05-10T07:54:48;5.20;;;2.70;;
75386;SDS011;63966;47.914;22.266;2023-05-10T07:57:51;4.82;;;2.40;;
75386;SDS011;63966;47.914;22.266;2023-05-10T08:00:55;6.77;;;2.20;;
75386;SDS011;63966;47.914;22.266;2023-05-10T08:03:58;6.13;;;1.88;;
75386;SDS011;63966;47.914;22.266;2023-05-10T08:07:02;7.13;;;2.10;;
75386;SDS011;63966;47.914;22.266;2023-05-10T08:10:06;4.35;;;1.80;;
75386;SDS011;63966;47.914;22.266;2023-05-10T08:13:10;5.95;;;2.08;;
75386;SDS011;63966;47.914;22.266;2023-05-10T08:16:13;6.20;;;1.77;;
75386;SDS011;63966;47.914;22.266;2023-05-10T08:19:17;3.05;;;1.65;;
75386;SDS011;63966;47.914;22.266;2023-05-10T08:22:23;6.82;;;2.33;;
75386;SDS011;63966;47.914;22.266;2023-05-10T08:25:26;5.72;;;1.92;;
75386;SDS011;63966;47.914;22.266;2023-05-10T08:28:30;5.40;;;1.60;;
75386;SDS011;63966;47.914;22.266;2023-05-10T08:31:33;4.00;;;2.00;;
75386;SDS011;63966;47.914;22.266;2023-05-10T08:34:37;3.97;;;1.90;;
75386;SDS011;63966;47.914;22.266;2023-05-10T08:37:40;3.83;;;2.10;;
75386;SDS011;63966;47.914;22.266;2023-05-10T08:40:43;7.18;;;2.20;;
75386;SDS011;63966;47.914;22.266;2023-05-10T08:43:47;5.93;;;2.15;;
75386;SDS011;63966;47.914;22.266;2023-05-10T08:46:52;4.80;;;2.10;;
75386;SDS011;63966;47.914;22.266;2023-05-10T08:49:57;4.47;;;1.80;;
75386;SDS011;63966;47.914;22.266;2023-05-10T08:53:03;3.53;;;1.70;;
75386;SDS011;63966;47.914;22.266;2023-05-10T08:56:09;3.90;;;1.50;;
75386;SDS011;63966;47.914;22.266;2023-05-10T08:59:14;3.17;;;1.67;;
75386;SDS011;63966;47.914;22.266;2023-05-10T09:02:18;4.20;;;2.17;;
75386;SDS011;63966;47.914;22.266;2023-05-10T09:05:26;4.40;;;1.90;;
75386;SDS011;63966;47.914;22.266;2023-05-10T09:08:30;5.20;;;1.63;;
75386;SDS011;63966;47.914;22.266;2023-05-10T09:11:34;7.75;;;1.63;;
75386;SDS011;63966;47.914;22.266;2023-05-10T09:14:37;3.53;;;1.63;;
75386;SDS011;63966;47.914;22.266;2023-05-10T09:17:42;3.20;;;1.70;;
75386;SDS011;63966;47.914;22.266;2023-05-10T09:20:52;4.22;;;1.40;;
75386;SDS011;63966;47.914;22.266;2023-05-10T09:23:57;11.93;;;1.90;;
75386;SDS011;63966;47.914;22.266;2023-05-10T09:27:11;8.10;;;2.05;;
75386;SDS011;63966;47.914;22.266;2023-05-10T09:30:17;5.30;;;1.80;;
75386;SDS011;63966;47.914;22.266;2023-05-10T09:33:29;2.77;;;1.47;;
75386;SDS011;63966;47.914;22.266;2023-05-10T09:36:55;3.70;;;1.70;;
75386;SDS011;63966;47.914;22.266;2023-05-10T09:40:00;5.57;;;1.90;;
75386;SDS011;63966;47.914;22.266;2023-05-10T09:43:06;2.95;;;1.38;;
75386;SDS011;63966;47.914;22.266;2023-05-10T09:46:10;3.25;;;1.58;;
75386;SDS011;63966;47.914;22.266;2023-05-10T09:49:14;6.50;;;1.90;;
75386;SDS011;63966;47.914;22.266;2023-05-10T09:52:18;2.70;;;1.38;;
75386;SDS011;63966;47.914;22.266;2023-05-10T09:55:22;4.70;;;1.90;;
75386;SDS011;63966;47.914;22.266;2023-05-10T09:58:26;7.00;;;1.70;;
75386;SDS011;63966;47.914;22.266;2023-05-10T10:01:30;8.68;;;1.77;;
75386;SDS011;63966;47.914;22.266;2023-05-10T10:04:37;4.13;;;1.60;;
75386;SDS011;63966;47.914;22.266;2023-05-10T10:07:42;4.90;;;1.42;;
75386;SDS011;63966;47.914;22.266;2023-05-10T10:10:46;7.60;;;1.88;;
75386;SDS011;63966;47.914;22.266;2023-05-10T10:13:49;8.18;;;1.80;;
75386;SDS011;63966;47.914;22.266;2023-05-10T10:16:53;5.25;;;1.50;;
75386;SDS011;63966;47.914;22.266;2023-05-10T10:20:09;3.33;;;1.40;;
75386;SDS011;63966;47.914;22.266;2023-05-10T10:23:13;5.57;;;1.73;;
75386;SDS011;63966;47.914;22.266;2023-05-10T10:26:19;8.10;;;1.63;;
75386;SDS011;63966;47.914;22.266;2023-05-10T10:36:45;3.30;;;1.23;;
75386;SDS011;63966;47.914;22.266;2023-05-10T10:39:53;3.05;;;1.67;;
75386;SDS011;63966;47.914;22.266;2023-05-10T10:43:20;4.65;;;1.52;;
75386;SDS011;63966;47.914;22.266;2023-05-10T10:46:29;2.97;;;1.50;;
75386;SDS011;63966;47.914;22.266;2023-05-10T10:49:33;5.57;;;1.80;;
75386;SDS011;63966;47.914;22.266;2023-05-10T10:52:43;6.50;;;1.67;;
75386;SDS011;63966;47.914;22.266;2023-05-10T10:55:47;6.13;;;1.58;;
75386;SDS011;63966;47.914;22.266;2023-05-10T10:58:51;2.65;;;1.40;;
75386;SDS011;63966;47.914;22.266;2023-05-10T11:01:55;6.60;;;1.77;;
75386;SDS011;63966;47.914;22.266;2023-05-10T11:04:59;2.58;;;1.33;;
75386;SDS011;63966;47.914;22.266;2023-05-10T11:08:30;4.43;;;1.50;;
75386;SDS011;63966;47.914;22.266;2023-05-10T11:11:51;3.22;;;1.42;;
75386;SDS011;63966;47.914;22.266;2023-05-10T11:14:57;4.13;;;1.40;;
75386;SDS011;63966;47.914;22.266;2023-05-10T11:18:17;4.43;;;1.63;;
75386;SDS011;63966;47.914;22.266;2023-05-10T11:21:31;3.65;;;1.40;;
75386;SDS011;63966;47.914;22.266;2023-05-10T11:24:35;4.50;;;1.60;;
75386;SDS011;63966;47.914;22.266;2023-05-10T11:27:39;3.13;;;1.48;;
75386;SDS011;63966;47.914;22.266;2023-05-10T11:30:44;4.65;;;1.65;;
75386;SDS011;63966;47.914;22.266;2023-05-10T11:33:49;2.45;;;1.30;;
75386;SDS011;63966;47.914;22.266;2023-05-10T11:36:54;3.67;;;1.70;;
75386;SDS011;63966;47.914;22.266;2023-05-10T11:39:58;4.07;;;1.30;;
75386;SDS011;63966;47.914;22.266;2023-05-10T11:43:02;4.45;;;1.42;;
75386;SDS011;63966;47.914;22.266;2023-05-10T11:46:06;6.07;;;1.60;;
75386;SDS011;63966;47.914;22.266;2023-05-10T11:49:12;3.08;;;1.40;;
75386;SDS011;63966;47.914;22.266;2023-05-10T11:52:15;6.00;;;1.80;;
75386;SDS011;63966;47.914;22.266;2023-05-10T11:55:22;5.60;;;1.30;;
75386;SDS011;63966;47.914;22.266;2023-05-10T11:58:26;6.18;;;1.55;;
75386;SDS011;63966;47.914;22.266;2023-05-10T12:01:30;2.78;;;1.48;;
75386;SDS011;63966;47.914;22.266;2023-05-10T12:04:33;3.85;;;1.60;;
75386;SDS011;63966;47.914;22.266;2023-05-10T12:07:37;5.88;;;1.65;;
75386;SDS011;63966;47.914;22.266;2023-05-10T12:10:40;9.30;;;1.47;;
75386;SDS011;63966;47.914;22.266;2023-05-10T12:13:44;3.95;;;1.60;;
75386;SDS011;63966;47.914;22.266;2023-05-10T12:16:51;3.70;;;1.50;;
75386;SDS011;63966;47.914;22.266;2023-05-10T12:19:58;3.15;;;1.40;;
75386;SDS011;63966;47.914;22.266;2023-05-10T12:23:22;11.23;;;1.73;;
75386;SDS011;63966;47.914;22.266;2023-05-10T12:26:26;10.53;;;1.80;;
75386;SDS011;63966;47.914;22.266;2023-05-10T12:29:31;3.53;;;1.48;;
75386;SDS011;63966;47.914;22.266;2023-05-10T12:32:38;3.30;;;1.30;;
75386;SDS011;63966;47.914;22.266;2023-05-10T12:39:02;6.60;;;1.80;;
75386;SDS011;63966;47.914;22.266;2023-05-10T12:42:07;3.43;;;1.47;;
75386;SDS011;63966;47.914;22.266;2023-05-10T12:45:11;3.42;;;1.50;;
75386;SDS011;63966;47.914;22.266;2023-05-10T12:48:15;6.22;;;1.60;;
75386;SDS011;63966;47.914;22.266;2023-05-10T12:51:18;4.25;;;1.40;;
75386;SDS011;63966;47.914;22.266;2023-05-10T12:54:24;4.85;;;1.90;;
75386;SDS011;63966;47.914;22.266;2023-05-10T12:57:27;7.70;;;1.63;;
75386;SDS011;63966;47.914;22.266;2023-05-10T13:00:34;3.40;;;1.60;;
75386;SDS011;63966;47.914;22.266;2023-05-10T13:03:40;3.38;;;1.58;;
75386;SDS011;63966;47.914;22.266;2023-05-10T13:06:45;2.83;;;1.65;;
75386;SDS011;63966;47.914;22.266;2023-05-10T13:09:48;3.38;;;1.50;;
75386;SDS011;63966;47.914;22.266;2023-05-10T13:12:51;3.63;;;1.30;;
75386;SDS011;63966;47.914;22.266;2023-05-10T13:15:55;2.90;;;1.50;;
75386;SDS011;63966;47.914;22.266;2023-05-10T13:18:58;5.70;;;1.77;;
75386;SDS011;63966;47.914;22.266;2023-05-10T13:22:02;4.43;;;1.50;;
75386;SDS011;63966;47.914;22.266;2023-05-10T13:25:06;10.48;;;1.77;;
75386;SDS011;63966;47.914;22.266;2023-05-10T13:28:10;5.40;;;1.60;;
75386;SDS011;63966;47.914;22.266;2023-05-10T13:31:13;7.57;;;2.10;;
75386;SDS011;63966;47.914;22.266;2023-05-10T13:34:17;11.50;;;1.83;;
75386;SDS011;63966;47.914;22.266;2023-05-10T13:37:24;4.90;;;1.42;;
75386;SDS011;63966;47.914;22.266;2023-05-10T13:40:28;6.85;;;1.58;;
75386;SDS011;63966;47.914;22.266;2023-05-10T13:43:31;4.20;;;1.60;;
75386;SDS011;63966;47.914;22.266;2023-05-10T13:46:35;3.38;;;1.50;;
75386;SDS011;63966;47.914;22.266;2023-05-10T13:49:40;3.65;;;1.65;;
75386;SDS011;63966;47.914;22.266;2023-05-10T13:52:43;3.95;;;1.60;;
75386;SDS011;63966;47.914;22.266;2023-05-10T13:59:16;3.83;;;1.30;;
75386;SDS011;63966;47.914;22.266;2023-05-10T14:02:19;3.17;;;1.30;;
75386;SDS011;63966;47.914;22.266;2023-05-10T14:05:22;3.45;;;1.52;;
75386;SDS011;63966;47.914;22.266;2023-05-10T14:08:27;6.20;;;1.70;;
75386;SDS011;63966;47.914;22.266;2023-05-10T14:11:31;3.33;;;1.50;;
75386;SDS011;63966;47.914;22.266;2023-05-10T14:14:34;2.97;;;1.40;;
75386;SDS011;63966;47.914;22.266;2023-05-10T14:17:37;3.67;;;1.60;;
75386;SDS011;63966;47.914;22.266;2023-05-10T14:20:41;2.97;;;1.40;;
75386;SDS011;63966;47.914;22.266;2023-05-10T14:23:44;3.17;;;1.50;;
75386;SDS011;63966;47.914;22.266;2023-05-10T14:26:48;2.90;;;1.30;;
75386;SDS011;63966;47.914;22.266;2023-05-10T14:29:55;2.97;;;1.30;;
75386;SDS011;63966;47.914;22.266;2023-05-10T14:32:59;3.20;;;1.30;;
75386;SDS011;63966;47.914;22.266;2023-05-10T14:36:04;3.53;;;1.50;;
75386;SDS011;63966;47.914;22.266;2023-05-10T14:39:08;2.88;;;1.60;;
75386;SDS011;63966;47.914;22.266;2023-05-10T14:42:14;5.50;;;1.80;;
75386;SDS011;63966;47.914;22.266;2023-05-10T14:45:18;3.53;;;1.40;;
75386;SDS011;63966;47.914;22.266;2023-05-10T14:48:22;3.17;;;1.40;;
75386;SDS011;63966;47.914;22.266;2023-05-10T14:51:26;3.83;;;1.67;;
75386;SDS011;63966;47.914;22.266;2023-05-10T14:54:29;3.55;;;1.50;;
75386;SDS011;63966;47.914;22.266;2023-05-10T14:57:34;4.75;;;1.35;;
75386;SDS011;63966;47.914;22.266;2023-05-10T15:00:37;3.37;;;1.50;;
75386;SDS011;63966;47.914;22.266;2023-05-10T15:03:41;10.52;;;2.05;;
75386;SDS011;63966;47.914;22.266;2023-05-10T15:06:45;5.65;;;2.28;;
75386;SDS011;63966;47.914;22.266;2023-05-10T15:09:49;4.13;;;1.70;;
75386;SDS011;63966;47.914;22.266;2023-05-10T15:12:53;2.72;;;1.33;;
75386;SDS011;63966;47.914;22.266;2023-05-10T15:15:57;3.43;;;1.20;;
75386;SDS011;63966;47.914;22.266;2023-05-10T15:19:00;4.20;;;1.30;;
75386;SDS011;63966;47.914;22.266;2023-05-10T15:22:04;3.70;;;1.70;;
75386;SDS011;63966;47.914;22.266;2023-05-10T15:25:08;3.33;;;1.33;;
75386;SDS011;63966;47.914;22.266;2023-05-10T15:28:12;3.22;;;1.50;;
75386;SDS011;63966;47.914;22.266;2023-05-10T15:31:15;6.23;;;2.00;;
75386;SDS011;63966;47.914;22.266;2023-05-10T15:34:18;4.32;;;1.40;;
75386;SDS011;63966;47.914;22.266;2023-05-10T15:37:22;6.10;;;1.70;;
75386;SDS011;63966;47.914;22.266;2023-05-10T15:40:26;4.43;;;1.52;;
75386;SDS011;63966;47.914;22.266;2023-05-10T15:43:29;2.90;;;1.50;;
75386;SDS011;63966;47.914;22.266;2023-05-10T15:46:33;2.87;;;1.40;;
75386;SDS011;63966;47.914;22.266;2023-05-10T15:49:37;3.90;;;1.20;;
75386;SDS011;63966;47.914;22.266;2023-05-10T15:52:40;2.55;;;1.27;;
75386;SDS011;63966;47.914;22.266;2023-05-10T15:55:43;2.58;;;1.30;;
75386;SDS011;63966;47.914;22.266;2023-05-10T15:58:47;5.60;;;2.45;;
75386;SDS011;63966;47.914;22.266;2023-05-10T16:01:50;3.03;;;1.40;;
75386;SDS011;63966;47.914;22.266;2023-05-10T16:04:54;3.78;;;1.50;;
75386;SDS011;63966;47.914;22.266;2023-05-10T16:07:58;5.15;;;1.45;;
75386;SDS011;63966;47.914;22.266;2023-05-10T16:11:02;6.10;;;1.48;;
75386;SDS011;63966;47.914;22.266;2023-05-10T16:14:06;3.25;;;1.33;;
75386;SDS011;63966;47.914;22.266;2023-05-10T16:17:10;3.70;;;1.40;;
75386;SDS011;63966;47.914;22.266;2023-05-10T16:20:13;2.97;;;1.30;;
75386;SDS011;63966;47.914;22.266;2023-05-10T16:23:17;4.18;;;1.40;;
75386;SDS011;63966;47.914;22.266;2023-05-10T16:26:20;5.85;;;1.88;;
75386;SDS011;63966;47.914;22.266;2023-05-10T16:29:24;3.88;;;1.60;;
75386;SDS011;63966;47.914;22.266;2023-05-10T16:32:27;3.53;;;1.20;;
75386;SDS011;63966;47.914;22.266;2023-05-10T16:35:31;3.20;;;1.45;;
75386;SDS011;63966;47.914;22.266;2023-05-10T16:38:34;3.88;;;1.50;;
75386;SDS011;63966;47.914;22.266;2023-05-10T16:41:38;3.92;;;1.42;;
75386;SDS011;63966;47.914;22.266;2023-05-10T16:44:42;2.67;;;1.23;;
75386;SDS011;63966;47.914;22.266;2023-05-10T16:47:45;3.73;;;1.53;;
75386;SDS011;63966;47.914;22.266;2023-05-10T16:50:49;4.72;;;1.85;;
75386;SDS011;63966;47.914;22.266;2023-05-10T16:53:52;2.88;;;1.38;;
75386;SDS011;63966;47.914;22.266;2023-05-10T16:56:55;3.58;;;1.50;;
75386;SDS011;63966;47.914;22.266;2023-05-10T16:59:59;3.00;;;1.20;;
75386;SDS011;63966;47.914;22.266;2023-05-10T17:03:02;2.57;;;1.10;;
75386;SDS011;63966;47.914;22.266;2023-05-10T17:06:06;4.43;;;1.83;;
75386;SDS011;63966;47.914;22.266;2023-05-10T17:09:10;10.02;;;2.78;;
75386;SDS011;63966;47.914;22.266;2023-05-10T17:12:13;12.93;;;3.38;;
75386;SDS011;63966;47.914;22.266;2023-05-10T17:15:17;7.22;;;1.80;;
75386;SDS011;63966;47.914;22.266;2023-05-10T17:18:22;4.73;;;1.60;;
75386;SDS011;63966;47.914;22.266;2023-05-10T17:21:25;4.85;;;1.58;;
75386;SDS011;63966;47.914;22.266;2023-05-10T17:24:29;4.68;;;1.60;;
75386;SDS011;63966;47.914;22.266;2023-05-10T17:27:32;6.60;;;1.65;;
75386;SDS011;63966;47.914;22.266;2023-05-10T17:30:36;3.42;;;1.63;;
75386;SDS011;63966;47.914;22.266;2023-05-10T17:33:39;3.70;;;1.50;;
75386;SDS011;63966;47.914;22.266;2023-05-10T17:36:43;3.20;;;1.50;;
75386;SDS011;63966;47.914;22.266;2023-05-10T17:39:46;3.03;;;1.27;;
75386;SDS011;63966;47.914;22.266;2023-05-10T17:42:50;2.50;;;1.23;;
75386;SDS011;63966;47.914;22.266;2023-05-10T17:45:53;5.43;;;1.90;;
75386;SDS011;63966;47.914;22.266;2023-05-10T17:48:57;3.60;;;1.40;;
75386;SDS011;63966;47.914;22.266;2023-05-10T17:52:00;6.50;;;2.20;;
75386;SDS011;63966;47.914;22.266;2023-05-10T17:55:04;6.85;;;2.97;;
75386;SDS011;63966;47.914;22.266;2023-05-10T17:58:09;8.95;;;4.07;;
75386;SDS011;63966;47.914;22.266;2023-05-10T18:01:13;16.77;;;5.78;;
75386;SDS011;63966;47.914;22.266;2023-05-10T18:04:17;29.20;;;8.77;;
75386;SDS011;63966;47.914;22.266;2023-05-10T18:07:21;17.27;;;5.75;;
75386;SDS011;63966;47.914;22.266;2023-05-10T18:10:25;51.97;;;21.60;;
75386;SDS011;63966;47.914;22.266;2023-05-10T18:13:28;36.50;;;13.02;;
75386;SDS011;63966;47.914;22.266;2023-05-10T18:16:31;40.78;;;17.65;;
75386;SDS011;63966;47.914;22.266;2023-05-10T18:19:35;31.90;;;12.00;;
75386;SDS011;63966;47.914;22.266;2023-05-10T18:22:38;35.83;;;13.98;;
75386;SDS011;63966;47.914;22.266;2023-05-10T18:25:42;20.42;;;6.90;;
75386;SDS011;63966;47.914;22.266;2023-05-10T18:28:45;41.08;;;14.85;;
75386;SDS011;63966;47.914;22.266;2023-05-10T18:31:49;26.85;;;10.73;;
75386;SDS011;63966;47.914;22.266;2023-05-10T18:34:52;22.33;;;8.50;;
75386;SDS011;63966;47.914;22.266;2023-05-10T18:37:57;34.25;;;11.02;;
75386;SDS011;63966;47.914;22.266;2023-05-10T18:41:00;151.18;;;46.58;;
75386;SDS011;63966;47.914;22.266;2023-05-10T18:44:04;170.60;;;52.28;;
75386;SDS011;63966;47.914;22.266;2023-05-10T18:47:08;59.22;;;19.95;;
75386;SDS011;63966;47.914;22.266;2023-05-10T18:50:11;35.30;;;11.37;;
75386;SDS011;63966;47.914;22.266;2023-05-10T18:53:15;25.23;;;8.48;;